Time;durP1;ratioP1;P1;durP2;ratioP2;P2;SDS_P1;SDS_P2;PMS_P1;PMS_P2;Temp;Humidity;BMP_temperature;BMP_pressure;BME280_temperature;BME280_humidity;BME280_pressure;Samples;Min_cycle;Max_cycle;Signal;HPM_P1;HPM_P2
2024/01/30 00:02:15;;;;;;;13.10;7.97;;;;;;;5.20;100.00;102126.00;5069408;28;20041;-83
2024/01/30 00:04:45;;;;;;;11.82;8.45;;;;;;;5.21;100.00;102127.78;5068997;28;20114;-83
2024/01/30 00:07:15;;;;;;;13.95;8.07;;;;;;;5.20;100.00;102128.59;5034876;28;20053;-83
2024/01/30 00:09:55;;;;;;;12.45;7.72;;;;;;;5.17;100.00;102125.91;5076283;28;20041;-84
2024/01/30 00:12:26;;;;;;;13.00;8.07;;;;;;;5.14;100.00;102127.53;5061700;28;20404;-82
2024/01/30 00:15:00;;;;;;;12.93;8.77;;;;;;;5.14;100.00;102124.94;5037938;28;20116;-83
2024/01/30 00:17:29;;;;;;;14.45;8.82;;;;;;;5.12;100.00;102117.94;5059434;28;20520;-81
2024/01/30 00:19:57;;;;;;;13.32;8.55;;;;;;;5.12;100.00;102115.34;5063759;28;20052;-80
2024/01/30 00:22:24;;;;;;;16.65;8.70;;;;;;;5.16;100.00;102116.34;5034502;28;20525;-81
2024/01/30 00:24:50;;;;;;;19.33;9.65;;;;;;;5.20;100.00;102113.03;5031773;28;20385;-83
2024/01/30 00:27:19;;;;;;;10.02;8.15;;;;;;;5.18;100.00;102104.31;5074656;28;20499;-82
2024/01/30 00:29:45;;;;;;;13.02;8.80;;;;;;;5.17;100.00;102106.00;5039084;28;20039;-81
2024/01/30 00:32:12;;;;;;;9.32;7.40;;;;;;;5.16;100.00;102098.16;5038428;28;20138;-82
2024/01/30 00:34:39;;;;;;;11.15;8.10;;;;;;;5.13;100.00;102104.13;5069677;28;20044;-82
2024/01/30 00:37:06;;;;;;;12.10;7.85;;;;;;;5.12;100.00;102107.53;5054260;28;20075;-83
2024/01/30 00:39:32;;;;;;;22.05;9.32;;;;;;;5.08;100.00;102100.47;5056952;28;20051;-84
2024/01/30 00:41:59;;;;;;;13.82;8.35;;;;;;;5.04;100.00;102090.81;5047400;28;20583;-81
2024/01/30 00:44:29;;;;;;;10.27;7.65;;;;;;;5.00;100.00;102097.59;5052474;28;20075;-82
2024/01/30 00:46:56;;;;;;;10.57;8.07;;;;;;;4.97;100.00;102098.38;5036744;28;20040;-83
2024/01/30 00:49:23;;;;;;;12.65;8.55;;;;;;;4.96;100.00;102098.31;5065309;28;20048;-83
2024/01/30 00:51:49;;;;;;;17.38;8.68;;;;;;;4.94;100.00;102095.66;5029680;28;20470;-81
2024/01/30 00:54:16;;;;;;;11.43;8.40;;;;;;;4.93;100.00;102100.81;5052073;28;20041;-82
2024/01/30 00:56:42;;;;;;;12.75;8.98;;;;;;;4.91;100.00;102103.31;5054668;28;20102;-82
2024/01/30 00:59:09;;;;;;;12.85;8.98;;;;;;;4.88;100.00;102100.63;5055608;28;20044;-82
2024/01/30 01:01:36;;;;;;;11.75;8.50;;;;;;;4.88;100.00;102100.63;5052428;28;20134;-83
2024/01/30 01:04:03;;;;;;;13.40;9.25;;;;;;;4.88;100.00;102107.53;5041778;28;20048;-81
2024/01/30 01:06:29;;;;;;;13.63;8.55;;;;;;;4.86;100.00;102107.44;5039018;28;20072;-83
2024/01/30 01:08:56;;;;;;;14.50;9.02;;;;;;;4.86;100.00;102107.44;5070529;28;20450;-82
2024/01/30 01:11:23;;;;;;;12.43;9.30;;;;;;;4.85;100.00;102107.41;5052289;28;20159;-83
2024/01/30 01:13:50;;;;;;;16.15;8.98;;;;;;;4.88;100.00;102115.31;5037726;28;20044;-81
2024/01/30 01:16:16;;;;;;;15.10;8.63;;;;;;;4.88;100.00;102120.50;5051011;28;20044;-83
2024/01/30 01:18:43;;;;;;;12.25;7.85;;;;;;;4.86;100.00;102120.41;5049904;28;20036;-82
2024/01/30 01:21:10;;;;;;;11.98;8.55;;;;;;;4.86;100.00;102128.22;5048502;28;20049;-83
2024/01/30 01:23:36;;;;;;;18.70;8.85;;;;;;;4.89;100.00;102125.75;5052181;28;20048;-82
2024/01/30 01:26:03;;;;;;;14.77;9.02;;;;;;;4.87;100.00;102119.59;5050676;28;20447;-82
2024/01/30 01:28:32;;;;;;;10.95;7.88;;;;;;;4.88;100.00;102113.59;5019746;28;20083;-83
2024/01/30 01:31:05;;;;;;;17.20;8.18;;;;;;;4.91;100.00;102118.03;5064508;28;20055;-82
2024/01/30 01:33:36;;;;;;;11.52;9.27;;;;;;;4.91;100.00;102113.69;5035256;28;20063;-82
2024/01/30 01:36:03;;;;;;;13.93;8.48;;;;;;;4.93;100.00;102114.66;5029033;28;20041;-82
2024/01/30 01:38:30;;;;;;;16.33;9.05;;;;;;;4.94;100.00;102113.84;5050493;28;20039;-82
2024/01/30 01:40:57;;;;;;;14.95;8.73;;;;;;;4.94;100.00;102113.84;5033709;28;20114;-83
2024/01/30 01:43:29;;;;;;;12.85;9.43;;;;;;;4.94;100.00;102106.06;5018307;28;20063;-83
2024/01/30 01:45:56;;;;;;;14.70;8.95;;;;;;;4.96;100.00;102108.69;5039210;28;20155;-82
2024/01/30 01:48:23;;;;;;;13.50;8.57;;;;;;;4.94;100.00;102098.25;5019905;28;20544;-83
2024/01/30 01:50:49;;;;;;;14.70;8.18;;;;;;;4.95;100.00;102100.03;5047760;28;20056;-83
2024/01/30 01:53:21;;;;;;;13.32;8.32;;;;;;;4.92;100.00;102099.91;5032661;28;20815;-84
2024/01/30 01:55:50;;;;;;;13.52;8.63;;;;;;;4.93;100.00;102098.22;5032448;28;20041;-83
2024/01/30 01:58:17;;;;;;;19.17;9.73;;;;;;;4.93;100.00;102096.50;5014871;28;20106;-82
2024/01/30 02:00:47;;;;;;;12.00;8.98;;;;;;;4.97;100.00;102094.91;5033466;28;20037;-81
2024/01/30 02:03:14;;;;;;;13.02;8.95;;;;;;;5.00;100.00;102084.63;5031825;28;20052;-82
2024/01/30 02:05:42;;;;;;;10.60;7.63;;;;;;;5.01;100.00;102082.94;5033189;28;20442;-83
2024/01/30 02:08:09;;;;;;;17.05;9.15;;;;;;;5.06;100.00;102084.84;5014846;28;20047;-82
2024/01/30 02:10:36;;;;;;;12.43;8.55;;;;;;;5.09;100.00;102081.50;5045697;28;20154;-81
2024/01/30 02:13:04;;;;;;;12.85;8.30;;;;;;;5.09;100.00;102081.50;5021403;28;20052;-83
2024/01/30 02:15:31;;;;;;;22.30;11.43;;;;;;;5.09;100.00;102074.56;5031076;28;20041;-82
2024/01/30 02:17:58;;;;;;;11.73;8.73;;;;;;;5.10;100.00;102071.16;5034187;28;20967;-82
2024/01/30 02:20:26;;;;;;;14.45;8.98;;;;;;;5.09;100.00;102071.97;5031496;28;20032;-82
2024/01/30 02:22:55;;;;;;;13.35;9.27;;;;;;;5.07;100.00;102070.16;5030247;28;20057;-82
2024/01/30 02:25:44;;;;;;;9.90;7.50;;;;;;;5.05;100.00;102071.81;5030730;28;20077;-81
2024/01/30 02:28:14;;;;;;;10.60;8.23;;;;;;;5.05;100.00;102071.81;5014193;28;20052;-82
2024/01/30 02:30:41;;;;;;;13.27;8.93;;;;;;;5.05;100.00;102067.50;5030556;28;20037;-83
2024/01/30 02:33:10;;;;;;;12.45;8.82;;;;;;;5.08;100.00;102056.34;5030754;28;20055;-81
2024/01/30 02:35:37;;;;;;;19.35;10.02;;;;;;;5.12;100.00;102058.22;5010398;28;20494;-83
2024/01/30 02:38:04;;;;;;;13.75;9.13;;;;;;;5.16;100.00;102056.63;5015014;28;20045;-82
2024/01/30 02:40:31;;;;;;;14.15;8.95;;;;;;;5.19;100.00;102052.44;5015192;28;20103;-83
2024/01/30 02:43:02;;;;;;;14.52;9.05;;;;;;;5.18;100.00;102050.66;5031493;28;20403;-82
2024/01/30 02:45:29;;;;;;;16.52;8.68;;;;;;;5.20;100.00;102042.94;5027646;28;20048;-82
2024/01/30 02:47:55;;;;;;;13.90;9.05;;;;;;;5.23;100.00;102043.94;5060858;28;20053;-83
2024/01/30 02:50:22;;;;;;;13.13;8.07;;;;;;;5.25;100.00;102041.38;5030870;28;20051;-83
2024/01/30 02:52:49;;;;;;;12.80;9.18;;;;;;;5.24;100.00;102031.81;5013868;28;20135;-81
2024/01/30 02:55:17;;;;;;;13.98;9.05;;;;;;;5.25;100.00;102033.59;5028041;28;20049;-83
2024/01/30 02:57:47;;;;;;;11.65;9.32;;;;;;;5.25;100.00;102042.28;5045474;28;20033;-83
2024/01/30 03:00:16;;;;;;;11.82;9.48;;;;;;;5.25;100.00;102029.31;5027168;28;20067;-83
2024/01/30 03:02:43;;;;;;;13.27;8.93;;;;;;;5.26;100.00;102035.38;5028592;28;20072;-83
2024/01/30 03:05:10;;;;;;;14.75;8.65;;;;;;;5.26;100.00;102022.38;5029133;28;20068;-80
2024/01/30 03:07:39;;;;;;;16.00;8.95;;;;;;;5.30;100.00;102029.44;5026946;28;20143;-81
2024/01/30 03:10:06;;;;;;;11.57;8.52;;;;;;;5.34;100.00;102027.84;5000596;28;20138;-84
2024/01/30 03:12:39;;;;;;;13.27;9.13;;;;;;;5.35;100.00;102021.84;5030587;28;20041;-80
2024/01/30 03:15:06;;;;;;;15.65;9.85;;;;;;;5.32;100.00;102012.22;5058119;28;20060;-82
2024/01/30 03:17:38;;;;;;;16.45;9.20;;;;;;;5.33;100.00;102015.69;5027590;28;20041;-81
2024/01/30 03:20:08;;;;;;;15.00;9.52;;;;;;;5.33;100.00;102011.38;5058450;28;20038;-82
2024/01/30 03:22:35;;;;;;;13.52;9.50;;;;;;;5.30;100.00;102008.66;5037759;28;20218;-83
2024/01/30 03:25:02;;;;;;;12.77;8.80;;;;;;;5.32;100.00;102012.22;5085635;28;20053;-82
2024/01/30 03:27:31;;;;;;;13.77;9.13;;;;;;;5.32;100.00;102012.22;5035291;28;20044;-83
2024/01/30 03:29:58;;;;;;;14.82;9.30;;;;;;;5.33;100.00;102007.91;5070318;28;20047;-82
2024/01/30 03:32:25;;;;;;;17.48;9.38;;;;;;;5.33;100.00;102010.50;5036995;28;20055;-82
2024/01/30 03:34:51;;;;;;;14.93;8.52;;;;;;;5.33;100.00;102007.91;5071852;28;20105;-81
2024/01/30 03:37:19;;;;;;;14.55;9.88;;;;;;;5.37;100.00;102014.97;5070731;28;20114;-83
2024/01/30 03:39:45;;;;;;;19.20;8.80;;;;;;;5.35;100.00;102008.84;5038827;28;20051;-82
2024/01/30 03:42:12;;;;;;;11.52;8.00;;;;;;;5.31;100.00;102007.84;5038337;28;20056;-82
2024/01/30 03:44:38;;;;;;;13.95;9.02;;;;;;;5.30;100.00;102017.34;5030423;28;20045;-81
2024/01/30 03:47:08;;;;;;;12.13;7.35;;;;;;;5.26;100.00;102012.00;5034711;28;20395;-82
2024/01/30 03:49:34;;;;;;;13.55;9.65;;;;;;;5.23;100.00;102007.59;5064471;28;20656;-81
2024/01/30 03:52:01;;;;;;;12.05;8.80;;;;;;;5.22;100.00;102007.53;5031666;28;20136;-81
2024/01/30 03:54:31;;;;;;;16.08;8.45;;;;;;;5.21;100.00;102000.56;5034892;28;20522;-82
2024/01/30 03:56:57;;;;;;;12.57;8.68;;;;;;;5.18;100.00;102003.06;5039657;28;20135;-82
2024/01/30 03:59:24;;;;;;;14.50;9.10;;;;;;;5.19;100.00;102000.53;5033851;28;20044;-83
2024/01/30 04:01:51;;;;;;;18.80;10.88;;;;;;;5.20;100.00;102002.28;5052933;28;20040;-83
2024/01/30 04:04:21;;;;;;;13.00;8.20;;;;;;;5.14;100.00;102007.25;5035742;28;20504;-81
2024/01/30 04:06:48;;;;;;;14.63;8.55;;;;;;;5.12;100.00;102003.72;5053427;28;20186;-82
2024/01/30 04:09:14;;;;;;;15.32;8.63;;;;;;;5.09;100.00;101999.31;5031509;28;20055;-81
2024/01/30 04:11:42;;;;;;;13.45;8.98;;;;;;;5.11;100.00;101996.75;5069696;28;20086;-82
2024/01/30 04:14:10;;;;;;;11.70;8.63;;;;;;;5.11;100.00;102000.25;5034504;28;20055;-83
2024/01/30 04:16:36;;;;;;;15.65;8.57;;;;;;;5.09;100.00;101993.25;5019114;28;20447;-82
2024/01/30 04:19:03;;;;;;;13.32;8.32;;;;;;;5.08;100.00;101997.53;5036720;28;20450;-82
2024/01/30 04:21:30;;;;;;;10.40;7.85;;;;;;;5.07;100.00;102000.97;5069688;28;20045;-82
2024/01/30 04:23:56;;;;;;;14.30;8.52;;;;;;;5.05;100.00;101999.16;5054682;28;20060;-82
2024/01/30 04:26:23;;;;;;;13.52;8.57;;;;;;;5.01;100.00;101994.69;5036083;28;20037;-81
2024/01/30 04:28:50;;;;;;;13.80;8.27;;;;;;;4.98;100.00;101995.47;5085792;28;20037;-83
2024/01/30 04:31:16;;;;;;;16.85;9.30;;;;;;;4.99;100.00;102005.00;5039490;28;20048;-82
2024/01/30 04:33:43;;;;;;;16.45;9.20;;;;;;;4.97;100.00;101999.75;5025634;28;20076;-82
2024/01/30 04:36:11;;;;;;;13.30;8.25;;;;;;;4.94;100.00;102002.25;5069110;28;20123;-83
2024/01/30 04:38:38;;;;;;;11.20;7.95;;;;;;;4.93;100.00;101997.88;5054107;28;20616;-83
2024/01/30 04:41:05;;;;;;;10.75;7.90;;;;;;;4.93;100.00;102004.78;5030233;28;20041;-81
2024/01/30 04:43:31;;;;;;;10.38;8.05;;;;;;;4.93;100.00;102008.25;5049688;28;20529;-81
2024/01/30 04:45:58;;;;;;;14.30;9.38;;;;;;;4.91;100.00;102003.84;5085122;28;20060;-82
2024/01/30 04:48:24;;;;;;;10.27;7.72;;;;;;;4.90;100.00;102000.38;5055611;28;20055;-81
2024/01/30 04:50:51;;;;;;;16.17;9.43;;;;;;;4.88;100.00;101999.44;5043245;28;20044;-82
2024/01/30 04:53:18;;;;;;;19.05;8.73;;;;;;;4.93;100.00;101997.88;5025201;28;20123;-83
2024/01/30 04:55:45;;;;;;;16.02;9.52;;;;;;;4.94;100.00;101998.75;5037632;28;20131;-80
2024/01/30 04:58:12;;;;;;;13.98;7.90;;;;;;;4.92;100.00;101995.22;5035146;28;20101;-82
2024/01/30 05:00:38;;;;;;;14.10;9.27;;;;;;;4.94;100.00;101991.88;5033699;28;20045;-80
2024/01/30 05:03:05;;;;;;;16.30;8.45;;;;;;;4.99;100.00;101986.81;5056036;28;20156;-80
2024/01/30 05:05:31;;;;;;;10.30;7.78;;;;;;;5.00;100.00;101978.22;5058818;28;20037;-82
2024/01/30 05:07:58;;;;;;;11.85;8.27;;;;;;;5.01;100.00;101986.91;5020732;28;20709;-82
2024/01/30 05:10:25;;;;;;;10.75;7.88;;;;;;;5.00;100.00;101986.00;5020452;28;20049;-82
2024/01/30 05:12:51;;;;;;;10.13;8.13;;;;;;;5.00;100.00;101987.72;5027261;28;20084;-83
2024/01/30 05:15:18;;;;;;;11.05;7.90;;;;;;;4.99;100.00;101991.16;5037648;28;20044;-82
2024/01/30 05:17:46;;;;;;;13.57;8.48;;;;;;;4.97;100.00;101994.56;5037247;28;20052;-81
2024/01/30 05:20:13;;;;;;;11.20;8.05;;;;;;;4.97;100.00;101997.16;5059540;28;20095;-83
2024/01/30 05:22:44;;;;;;;13.60;8.13;;;;;;;5.02;100.00;101999.94;5025731;28;20048;-83
2024/01/30 05:25:13;;;;;;;15.60;7.85;;;;;;;5.00;100.00;101991.19;5028285;28;20091;-81
2024/01/30 05:27:39;;;;;;;10.52;7.40;;;;;;;4.99;100.00;101998.94;5008135;28;20123;-83
2024/01/30 05:30:10;;;;;;;11.93;7.68;;;;;;;4.97;100.00;101997.16;5031449;28;20053;-82
2024/01/30 05:32:36;;;;;;;12.15;7.57;;;;;;;4.95;100.00;101992.75;5058577;28;20131;-81
2024/01/30 05:35:04;;;;;;;11.10;7.70;;;;;;;4.93;100.00;101991.81;5043023;28;20528;-81
2024/01/30 05:37:35;;;;;;;10.38;8.23;;;;;;;4.91;100.00;101993.47;5048177;28;20049;-80
2024/01/30 05:40:02;;;;;;;15.70;8.90;;;;;;;4.87;100.00;101992.47;5018810;28;20452;-81
2024/01/30 05:42:29;;;;;;;12.52;8.13;;;;;;;4.88;100.00;101989.03;5050999;28;20069;-81
2024/01/30 05:44:56;;;;;;;13.43;9.23;;;;;;;4.90;100.00;101986.50;5017244;28;20147;-82
2024/01/30 05:47:22;;;;;;;13.93;7.85;;;;;;;4.87;100.00;101992.47;5046578;28;20136;-82
2024/01/30 05:49:51;;;;;;;15.73;7.80;;;;;;;4.87;100.00;101989.00;5015077;28;20047;-83
2024/01/30 05:52:18;;;;;;;8.82;7.07;;;;;;;4.84;100.00;101991.47;5053393;28;20044;-82
2024/01/30 05:54:45;;;;;;;10.57;7.90;;;;;;;4.82;100.00;101993.13;5048449;28;20047;-83
2024/01/30 05:57:13;;;;;;;12.00;9.32;;;;;;;4.82;100.00;101987.94;5030194;28;20049;-83
2024/01/30 05:59:39;;;;;;;16.70;8.30;;;;;;;4.83;100.00;101987.13;5031783;28;20064;-82
2024/01/30 06:02:06;;;;;;;12.07;7.80;;;;;;;4.82;100.00;101994.00;5036262;28;20610;-83
2024/01/30 06:04:33;;;;;;;17.20;9.15;;;;;;;4.78;100.00;101990.44;5052512;28;20095;-81
2024/01/30 06:07:01;;;;;;;14.13;8.77;;;;;;;4.82;100.00;101985.34;5008206;28;20559;-83
2024/01/30 06:09:28;;;;;;;12.63;8.68;;;;;;;4.77;100.00;101980.88;5012984;28;20156;-82
2024/01/30 06:11:55;;;;;;;17.48;8.30;;;;;;;4.78;100.00;101987.84;5030180;28;20045;-81
2024/01/30 06:14:22;;;;;;;15.23;8.80;;;;;;;4.76;100.00;101983.44;5008443;28;20056;-83
2024/01/30 06:16:48;;;;;;;15.32;8.80;;;;;;;4.76;100.00;101978.25;5028285;28;20040;-82
2024/01/30 06:19:15;;;;;;;16.95;9.80;;;;;;;4.78;100.00;101982.66;5042584;28;20777;-82
2024/01/30 06:21:42;;;;;;;13.02;8.18;;;;;;;4.78;100.00;101979.16;5014619;28;20051;-83
2024/01/30 06:24:08;;;;;;;8.75;7.18;;;;;;;4.80;100.00;101977.53;5067276;28;20119;-83
2024/01/30 06:26:35;;;;;;;14.07;7.88;;;;;;;4.82;100.00;101978.44;5063598;28;20098;-82
2024/01/30 06:29:01;;;;;;;11.18;7.53;;;;;;;4.85;100.00;101975.06;5044640;28;20044;-82
2024/01/30 06:31:28;;;;;;;10.65;7.95;;;;;;;4.87;100.00;101976.88;5030852;28;20055;-83
2024/01/30 06:33:55;;;;;;;15.38;8.45;;;;;;;4.85;100.00;101968.19;5057632;28;20044;-81
2024/01/30 06:36:23;;;;;;;9.38;7.93;;;;;;;4.85;100.00;101970.78;5037128;28;20534;-81
2024/01/30 06:38:50;;;;;;;10.30;7.90;;;;;;;4.85;100.00;101969.88;5046002;28;20106;-81
2024/01/30 06:41:16;;;;;;;10.15;7.50;;;;;;;4.81;100.00;101971.50;5040722;28;20834;-81
2024/01/30 06:43:45;;;;;;;14.07;7.93;;;;;;;4.80;100.00;101959.34;5034915;28;20052;-80
2024/01/30 06:46:11;;;;;;;11.88;8.88;;;;;;;4.84;100.00;101957.72;5030179;28;20064;-83
2024/01/30 06:48:40;;;;;;;13.50;8.00;;;;;;;4.83;100.00;101963.78;5062734;28;20079;-82
2024/01/30 06:51:07;;;;;;;11.23;8.18;;;;;;;4.83;100.00;101956.00;5038382;28;20040;-80
2024/01/30 06:53:33;;;;;;;13.10;8.95;;;;;;;4.81;100.00;101963.72;5070509;28;20479;-82
2024/01/30 06:56:00;;;;;;;17.02;8.70;;;;;;;4.80;100.00;101968.00;5050290;28;20040;-81
2024/01/30 06:58:27;;;;;;;13.32;9.05;;;;;;;4.79;100.00;101971.44;5049202;28;20442;-82
2024/01/30 07:00:54;;;;;;;15.68;8.68;;;;;;;4.76;100.00;101965.28;5054375;28;20044;-82
2024/01/30 07:03:20;;;;;;;12.23;8.50;;;;;;;4.77;100.00;101972.19;5032405;28;20675;-82
2024/01/30 07:05:47;;;;;;;12.43;9.05;;;;;;;4.76;100.00;101965.28;5029311;28;20139;-81
2024/01/30 07:08:14;;;;;;;10.48;7.20;;;;;;;4.76;100.00;101971.31;5032541;28;20579;-82
2024/01/30 07:10:41;;;;;;;13.57;7.43;;;;;;;4.77;100.00;101967.91;5038265;28;20056;-83
2024/01/30 07:13:09;;;;;;;13.15;7.88;;;;;;;4.77;100.00;101964.41;5050845;28;20519;-81
2024/01/30 07:15:36;;;;;;;28.65;10.55;;;;;;;4.78;100.00;101971.38;5038597;28;20041;-81
2024/01/30 07:18:04;;;;;;;14.10;9.00;;;;;;;4.78;100.00;101963.59;5058446;28;20037;-81
2024/01/30 07:20:31;;;;;;;15.95;8.50;;;;;;;4.79;100.00;101973.16;5081823;28;20048;-80
2024/01/30 07:22:59;;;;;;;19.83;9.80;;;;;;;4.79;100.00;101957.59;5028618;28;20064;-79
2024/01/30 07:25:26;;;;;;;15.38;9.65;;;;;;;4.84;100.00;101966.41;5011943;28;20080;-78
2024/01/30 07:27:57;;;;;;;16.60;9.43;;;;;;;4.89;100.00;101966.56;5013775;28;20045;-80
2024/01/30 07:30:24;;;;;;;15.73;9.98;;;;;;;4.96;100.00;101968.56;5049520;28;20037;-82
2024/01/30 07:32:50;;;;;;;13.55;8.18;;;;;;;5.00;100.00;101972.16;5064488;28;20045;-78
2024/01/30 07:35:17;;;;;;;13.73;7.68;;;;;;;5.04;100.00;101971.44;5045329;28;20045;-81
2024/01/30 07:37:44;;;;;;;12.32;8.38;;;;;;;5.11;100.00;101975.97;5012429;28;20044;-81
2024/01/30 07:40:12;;;;;;;10.52;8.20;;;;;;;5.14;100.00;101966.59;5031864;28;20096;-79
2024/01/30 07:42:38;;;;;;;11.50;7.78;;;;;;;5.15;100.00;101967.50;5029622;28;20044;-78
2024/01/30 07:45:05;;;;;;;14.73;7.55;;;;;;;5.19;100.00;101971.97;5029663;28;20500;-80
2024/01/30 07:47:32;;;;;;;13.40;7.88;;;;;;;5.21;100.00;101967.69;5051133;28;20389;-80
2024/01/30 07:49:59;;;;;;;15.48;8.57;;;;;;;5.20;100.00;101968.53;5025819;28;20049;-78
2024/01/30 07:52:25;;;;;;;14.70;7.53;;;;;;;5.24;100.00;101970.41;5044393;28;20051;-81
2024/01/30 07:54:52;;;;;;;26.48;10.02;;;;;;;5.27;100.00;101969.63;5011044;28;20045;-80
2024/01/30 07:57:19;;;;;;;10.73;7.47;;;;;;;5.31;100.00;101966.31;5035154;28;20053;-78
2024/01/30 07:59:46;;;;;;;12.82;6.72;;;;;;;5.35;100.00;101968.16;5021001;28;20111;-81
2024/01/30 08:02:15;;;;;;;12.10;8.05;;;;;;;5.34;100.00;101968.13;5013636;28;20056;-83
2024/01/30 08:04:42;;;;;;;12.57;7.68;;;;;;;5.36;100.00;101969.94;5028944;28;20116;-80
2024/01/30 08:07:08;;;;;;;12.23;7.05;;;;;;;5.40;100.00;101971.81;5063792;28;20132;-79
2024/01/30 08:09:34;;;;;;;13.93;7.47;;;;;;;5.40;100.00;101960.53;5032060;28;20695;-79
2024/01/30 08:12:01;;;;;;;14.18;7.80;;;;;;;5.43;100.00;101968.44;5033008;28;20768;-78
2024/01/30 08:14:28;;;;;;;14.93;7.47;;;;;;;5.43;100.00;101958.91;5046140;28;20049;-81
2024/01/30 08:16:55;;;;;;;11.32;7.68;;;;;;;5.49;100.00;101958.25;5009216;28;20496;-80
2024/01/30 08:19:21;;;;;;;11.65;8.18;;;;;;;5.50;100.00;101960.03;5037086;28;20046;-80
2024/01/30 08:21:48;;;;;;;16.23;8.75;;;;;;;5.51;100.00;101955.69;5026038;28;20118;-82
2024/01/30 08:24:14;;;;;;;13.50;8.02;;;;;;;5.58;100.00;101958.56;5049582;28;20083;-79
2024/01/30 08:26:41;;;;;;;14.35;7.55;;;;;;;5.57;100.00;101956.78;5049769;28;20049;-79
2024/01/30 08:29:07;;;;;;;9.85;8.18;;;;;;;5.56;100.00;101947.22;5026599;28;20540;-83
2024/01/30 08:31:34;;;;;;;10.73;7.88;;;;;;;5.67;100.00;101950.19;5019379;28;20053;-80
2024/01/30 08:34:00;;;;;;;11.77;8.55;;;;;;;5.70;100.00;101952.88;5016770;28;20052;-81
2024/01/30 08:36:27;;;;;;;15.07;7.38;;;;;;;5.80;100.00;101959.22;5015993;28;20120;-80
2024/01/30 08:38:54;;;;;;;12.77;8.13;;;;;;;5.87;100.00;101956.00;5025650;28;20086;-80
2024/01/30 08:41:20;;;;;;;10.80;8.80;;;;;;;5.93;100.00;101963.09;5047785;28;20080;-80
2024/01/30 08:43:47;;;;;;;14.10;8.70;;;;;;;6.01;100.00;101963.38;5032064;28;20041;-79
2024/01/30 08:46:13;;;;;;;11.73;8.30;;;;;;;6.02;100.00;101963.41;5030856;28;20059;-80
2024/01/30 08:48:42;;;;;;;11.55;8.07;;;;;;;6.01;100.00;101958.16;5011198;28;20476;-78
2024/01/30 08:51:08;;;;;;;12.05;8.10;;;;;;;6.10;100.00;101953.25;5049206;28;20526;-82
2024/01/30 08:53:36;;;;;;;15.02;7.72;;;;;;;6.10;100.00;101950.66;5028412;28;20056;-80
2024/01/30 08:56:08;;;;;;;9.75;7.47;;;;;;;6.17;100.00;101950.00;5015215;28;20045;-80
2024/01/30 08:58:35;;;;;;;13.80;7.57;;;;;;;6.16;100.00;101953.44;5047125;28;20574;-80
2024/01/30 09:01:05;;;;;;;14.73;8.77;;;;;;;6.18;100.00;101943.97;5049795;28;20055;-79
2024/01/30 09:03:32;;;;;;;9.02;6.88;;;;;;;6.27;100.00;101951.16;5009027;28;20048;-81
2024/01/30 09:05:58;;;;;;;12.95;7.20;;;;;;;6.36;100.00;101945.34;5017144;28;20049;-80
2024/01/30 09:08:25;;;;;;;12.50;7.47;;;;;;;6.41;100.00;101943.75;5045296;28;20060;-80
2024/01/30 09:10:51;;;;;;;9.98;7.72;;;;;;;6.51;100.00;101943.19;5003124;28;20108;-78
2024/01/30 09:13:18;;;;;;;13.60;8.43;;;;;;;6.53;100.00;101935.44;5048819;28;20063;-80
2024/01/30 09:15:44;;;;;;;12.82;7.85;;;;;;;6.66;100.00;101936.66;5011940;28;20068;-80
2024/01/30 09:18:11;;;;;;;13.80;9.43;;;;;;;6.66;100.00;101942.72;5010979;28;20096;-82
2024/01/30 09:20:38;;;;;;;14.02;9.13;;;;;;;6.75;100.00;101937.81;5032449;28;20841;-81
2024/01/30 09:23:04;;;;;;;18.08;7.88;;;;;;;6.79;100.00;101939.66;5061572;28;20530;-82
2024/01/30 09:25:31;;;;;;;11.90;7.72;;;;;;;6.87;100.00;101939.84;5073038;28;20408;-81
2024/01/30 09:27:58;;;;;;;15.07;8.52;;;;;;;6.88;100.00;101936.41;5058272;28;20706;-80
2024/01/30 09:30:24;;;;;;;10.43;8.27;;;;;;;6.88;100.00;101941.63;5071311;28;20841;-81
2024/01/30 09:32:51;;;;;;;12.45;8.23;;;;;;;6.95;100.00;101942.66;5029609;28;20585;-81
2024/01/30 09:35:20;;;;;;;13.15;7.28;;;;;;;7.06;100.00;101945.53;5066967;28;20443;-83
2024/01/30 09:37:48;;;;;;;10.85;7.85;;;;;;;7.12;100.00;101948.31;5049201;28;20487;-80
2024/01/30 09:40:18;;;;;;;8.60;6.95;;;;;;;7.29;100.00;101949.63;5049506;28;20041;-79
2024/01/30 09:42:51;;;;;;;10.60;7.05;;;;;;;7.42;100.00;101947.34;5066056;28;20036;-81
2024/01/30 09:45:26;;;;;;;8.65;7.05;;;;;;;7.47;100.00;101945.72;5032254;28;20052;-78
2024/01/30 09:47:54;;;;;;;10.82;7.30;;;;;;;7.58;100.00;101944.25;5067046;28;20053;-81
2024/01/30 09:50:21;;;;;;;14.73;8.05;;;;;;;7.57;100.00;101942.50;5049431;28;20147;-80
2024/01/30 09:52:49;;;;;;;14.35;7.72;;;;;;;7.72;100.00;101943.72;5058762;28;20127;-79
2024/01/30 09:55:16;;;;;;;11.15;7.88;;;;;;;7.74;100.00;101945.53;5083170;28;20048;-80
2024/01/30 09:57:46;;;;;;;11.30;7.70;;;;;;;7.88;100.00;101944.94;5036418;28;20067;-83
2024/01/30 10:00:20;;;;;;;12.40;8.02;;;;;;;7.95;100.00;101946.84;5057714;28;20367;-80
2024/01/30 10:02:46;;;;;;;10.65;7.20;;;;;;;7.93;100.00;101948.53;5070152;28;20048;-79
2024/01/30 10:05:20;;;;;;;12.38;7.47;;;;;;;8.05;100.00;101948.81;5049785;28;20090;-79
2024/01/30 10:07:56;;;;;;;11.90;7.53;;;;;;;8.07;99.64;101947.13;5045645;28;20045;-80
2024/01/30 10:10:24;;;;;;;7.85;6.97;;;;;;;8.10;98.52;101946.31;5056503;28;20444;-81
2024/01/30 10:12:51;;;;;;;13.80;8.52;;;;;;;8.20;98.07;101936.94;5029304;28;20500;-82
2024/01/30 10:15:19;;;;;;;9.68;7.18;;;;;;;8.28;96.88;101935.41;5044705;28;20049;-81
2024/01/30 10:17:46;;;;;;;8.82;7.45;;;;;;;8.24;95.41;101937.06;5038530;28;20471;-79
2024/01/30 10:20:13;;;;;;;10.90;6.88;;;;;;;8.40;95.50;101940.00;5050090;28;20523;-80
2024/01/30 10:22:45;;;;;;;11.23;7.38;;;;;;;8.46;93.91;101934.03;5050470;28;20083;-81
2024/01/30 10:25:12;;;;;;;11.35;7.15;;;;;;;8.61;92.29;101935.22;5049368;28;20072;-82
2024/01/30 10:27:43;;;;;;;12.95;7.72;;;;;;;8.72;91.58;101927.63;5032536;28;20143;-80
2024/01/30 10:30:09;;;;;;;15.23;7.82;;;;;;;8.66;92.03;101924.03;5034832;28;20515;-81
2024/01/30 10:32:36;;;;;;;11.88;7.35;;;;;;;8.83;91.84;101913.88;5033295;28;20032;-80
2024/01/30 10:35:03;;;;;;;8.75;7.35;;;;;;;8.82;90.59;101917.34;5032255;28;20044;-80
2024/01/30 10:37:32;;;;;;;9.38;6.57;;;;;;;8.93;91.01;101919.31;5033185;28;20056;-81
2024/01/30 10:40:05;;;;;;;10.10;7.18;;;;;;;8.94;89.58;101917.56;5029950;28;20060;-79
2024/01/30 10:42:33;;;;;;;15.40;8.27;;;;;;;9.07;89.47;101913.44;5031728;28;20134;-80
2024/01/30 10:45:12;;;;;;;11.07;7.18;;;;;;;9.11;89.27;101907.41;5042095;28;20049;-80
2024/01/30 10:47:44;;;;;;;15.95;6.85;;;;;;;9.13;88.28;101916.16;5048402;28;20119;-82
2024/01/30 10:50:12;;;;;;;9.55;7.05;;;;;;;9.05;88.51;101917.78;5061938;28;20057;-79
2024/01/30 10:52:42;;;;;;;10.32;7.32;;;;;;;9.07;89.70;101916.94;5032268;28;20040;-80
2024/01/30 10:55:09;;;;;;;10.15;8.77;;;;;;;9.11;88.74;101915.25;5034460;28;20052;-81
2024/01/30 10:57:36;;;;;;;9.98;7.35;;;;;;;9.03;88.57;101916.84;5034897;28;20089;-79
2024/01/30 11:00:11;;;;;;;9.43;8.32;;;;;;;8.99;88.83;101918.53;5057110;28;20050;-80
2024/01/30 11:02:44;;;;;;;11.43;7.53;;;;;;;9.00;88.74;101922.91;5061440;28;20037;-82
2024/01/30 11:05:15;;;;;;;10.85;6.57;;;;;;;9.09;88.54;101917.84;5052506;28;20052;-79
2024/01/30 11:07:42;;;;;;;13.35;8.05;;;;;;;8.97;88.65;101912.41;5048099;28;20056;-80
2024/01/30 11:10:09;;;;;;;9.00;7.10;;;;;;;9.02;88.98;101915.09;5047103;28;20040;-81
2024/01/30 11:12:47;;;;;;;9.93;6.90;;;;;;;9.04;89.43;101916.00;5036639;28;20041;-78
2024/01/30 11:15:16;;;;;;;12.38;7.57;;;;;;;8.94;89.53;101909.72;5031112;28;21342;-78
2024/01/30 11:17:53;;;;;;;11.35;6.78;;;;;;;8.97;89.75;101898.44;5033946;28;20384;-81
2024/01/30 11:20:26;;;;;;;11.20;7.07;;;;;;;8.94;89.10;101900.19;5034026;28;20567;-80
2024/01/30 11:22:57;;;;;;;9.23;7.20;;;;;;;9.05;89.87;101899.50;5047850;28;20044;-81